sensor_id;sensor_type;location;lat;lon;timestamp;P1;durP1;ratioP1;P2;durP2;ratioP2
11731;SDS011;5922;53.734;10.258;2023-05-29T00:00:08;9.20;;;2.77;;
11731;SDS011;5922;53.734;10.258;2023-05-29T00:02:37;10.60;;;2.70;;
11731;SDS011;5922;53.734;10.258;2023-05-29T00:05:05;10.17;;;2.77;;
11731;SDS011;5922;53.734;10.258;2023-05-29T00:07:32;6.90;;;2.40;;
11731;SDS011;5922;53.734;10.258;2023-05-29T00:09:59;8.17;;;2.70;;
11731;SDS011;5922;53.734;10.258;2023-05-29T00:12:27;10.77;;;2.97;;
11731;SDS011;5922;53.734;10.258;2023-05-29T00:14:54;13.40;;;3.20;;
11731;SDS011;5922;53.734;10.258;2023-05-29T00:17:22;8.70;;;2.70;;
11731;SDS011;5922;53.734;10.258;2023-05-29T00:19:50;6.17;;;2.27;;
11731;SDS011;5922;53.734;10.258;2023-05-29T00:22:17;7.97;;;2.63;;
11731;SDS011;5922;53.734;10.258;2023-05-29T00:24:45;8.97;;;2.87;;
11731;SDS011;5922;53.734;10.258;2023-05-29T00:27:12;18.13;;;3.70;;
11731;SDS011;5922;53.734;10.258;2023-05-29T00:29:39;11.33;;;3.00;;
11731;SDS011;5922;53.734;10.258;2023-05-29T00:32:07;14.73;;;2.90;;
11731;SDS011;5922;53.734;10.258;2023-05-29T00:34:35;12.43;;;2.87;;
11731;SDS011;5922;53.734;10.258;2023-05-29T00:37:03;11.30;;;2.67;;
11731;SDS011;5922;53.734;10.258;2023-05-29T00:39:30;9.53;;;2.97;;
11731;SDS011;5922;53.734;10.258;2023-05-29T00:41:57;7.67;;;2.20;;
11731;SDS011;5922;53.734;10.258;2023-05-29T00:44:25;11.37;;;2.93;;
11731;SDS011;5922;53.734;10.258;2023-05-29T00:46:52;13.80;;;3.07;;
11731;SDS011;5922;53.734;10.258;2023-05-29T00:49:20;8.17;;;3.00;;
11731;SDS011;5922;53.734;10.258;2023-05-29T00:51:49;10.27;;;2.50;;
11731;SDS011;5922;53.734;10.258;2023-05-29T00:54:20;10.03;;;2.60;;
11731;SDS011;5922;53.734;10.258;2023-05-29T00:56:48;10.03;;;2.93;;
11731;SDS011;5922;53.734;10.258;2023-05-29T00:59:15;14.60;;;2.93;;
11731;SDS011;5922;53.734;10.258;2023-05-29T01:01:44;11.03;;;2.90;;
11731;SDS011;5922;53.734;10.258;2023-05-29T01:04:11;13.00;;;3.03;;
11731;SDS011;5922;53.734;10.258;2023-05-29T01:06:38;9.57;;;2.87;;
11731;SDS011;5922;53.734;10.258;2023-05-29T01:09:07;11.90;;;2.87;;
11731;SDS011;5922;53.734;10.258;2023-05-29T01:11:36;10.07;;;2.77;;
11731;SDS011;5922;53.734;10.258;2023-05-29T01:14:08;9.23;;;2.40;;
11731;SDS011;5922;53.734;10.258;2023-05-29T01:16:38;10.90;;;2.90;;
11731;SDS011;5922;53.734;10.258;2023-05-29T01:19:09;11.10;;;3.00;;
11731;SDS011;5922;53.734;10.258;2023-05-29T01:21:41;13.63;;;2.87;;
11731;SDS011;5922;53.734;10.258;2023-05-29T01:24:15;9.70;;;3.17;;
11731;SDS011;5922;53.734;10.258;2023-05-29T01:26:50;9.80;;;2.67;;
11731;SDS011;5922;53.734;10.258;2023-05-29T01:29:19;10.00;;;3.07;;
11731;SDS011;5922;53.734;10.258;2023-05-29T01:31:48;12.07;;;2.80;;
11731;SDS011;5922;53.734;10.258;2023-05-29T01:34:16;11.07;;;3.67;;
11731;SDS011;5922;53.734;10.258;2023-05-29T01:36:43;11.40;;;3.00;;
11731;SDS011;5922;53.734;10.258;2023-05-29T01:39:12;9.03;;;2.63;;
11731;SDS011;5922;53.734;10.258;2023-05-29T01:41:39;10.03;;;2.97;;
11731;SDS011;5922;53.734;10.258;2023-05-29T01:44:08;11.30;;;3.00;;
11731;SDS011;5922;53.734;10.258;2023-05-29T01:46:36;11.07;;;3.10;;
11731;SDS011;5922;53.734;10.258;2023-05-29T01:49:04;10.23;;;2.90;;
11731;SDS011;5922;53.734;10.258;2023-05-29T01:51:31;13.33;;;2.90;;
11731;SDS011;5922;53.734;10.258;2023-05-29T01:53:59;10.37;;;2.90;;
11731;SDS011;5922;53.734;10.258;2023-05-29T01:56:27;15.03;;;2.97;;
11731;SDS011;5922;53.734;10.258;2023-05-29T01:58:54;11.67;;;2.87;;
11731;SDS011;5922;53.734;10.258;2023-05-29T02:01:23;13.43;;;2.97;;
11731;SDS011;5922;53.734;10.258;2023-05-29T02:03:51;10.20;;;2.70;;
11731;SDS011;5922;53.734;10.258;2023-05-29T02:06:18;12.63;;;3.23;;
11731;SDS011;5922;53.734;10.258;2023-05-29T02:08:46;10.40;;;2.70;;
11731;SDS011;5922;53.734;10.258;2023-05-29T02:11:13;12.87;;;3.33;;
11731;SDS011;5922;53.734;10.258;2023-05-29T02:13:41;11.07;;;3.10;;
11731;SDS011;5922;53.734;10.258;2023-05-29T02:16:08;13.80;;;3.20;;
11731;SDS011;5922;53.734;10.258;2023-05-29T02:18:37;10.33;;;3.10;;
11731;SDS011;5922;53.734;10.258;2023-05-29T02:21:06;13.67;;;3.50;;
11731;SDS011;5922;53.734;10.258;2023-05-29T02:23:33;12.50;;;3.20;;
11731;SDS011;5922;53.734;10.258;2023-05-29T02:26:01;10.50;;;2.67;;
11731;SDS011;5922;53.734;10.258;2023-05-29T02:28:28;10.13;;;3.00;;
11731;SDS011;5922;53.734;10.258;2023-05-29T02:30:55;13.80;;;3.23;;
11731;SDS011;5922;53.734;10.258;2023-05-29T02:33:22;13.43;;;2.97;;
11731;SDS011;5922;53.734;10.258;2023-05-29T02:35:51;17.20;;;3.33;;
11731;SDS011;5922;53.734;10.258;2023-05-29T02:38:19;14.30;;;2.83;;
11731;SDS011;5922;53.734;10.258;2023-05-29T02:40:46;9.53;;;3.00;;
11731;SDS011;5922;53.734;10.258;2023-05-29T02:43:13;12.40;;;3.60;;
11731;SDS011;5922;53.734;10.258;2023-05-29T02:45:40;14.97;;;3.67;;
11731;SDS011;5922;53.734;10.258;2023-05-29T02:48:07;10.13;;;3.27;;
11731;SDS011;5922;53.734;10.258;2023-05-29T02:50:35;8.87;;;3.30;;
11731;SDS011;5922;53.734;10.258;2023-05-29T02:53:03;10.13;;;2.90;;
11731;SDS011;5922;53.734;10.258;2023-05-29T02:55:30;18.03;;;3.37;;
11731;SDS011;5922;53.734;10.258;2023-05-29T02:58:00;14.30;;;3.37;;
11731;SDS011;5922;53.734;10.258;2023-05-29T03:00:28;20.07;;;3.77;;
11731;SDS011;5922;53.734;10.258;2023-05-29T03:02:55;12.20;;;3.17;;
11731;SDS011;5922;53.734;10.258;2023-05-29T03:05:22;12.27;;;3.30;;
11731;SDS011;5922;53.734;10.258;2023-05-29T03:07:50;12.87;;;3.43;;
11731;SDS011;5922;53.734;10.258;2023-05-29T03:10:19;11.57;;;2.90;;
11731;SDS011;5922;53.734;10.258;2023-05-29T03:12:47;11.87;;;3.07;;
11731;SDS011;5922;53.734;10.258;2023-05-29T03:15:14;8.57;;;3.00;;
11731;SDS011;5922;53.734;10.258;2023-05-29T03:17:41;14.00;;;3.20;;
11731;SDS011;5922;53.734;10.258;2023-05-29T03:20:09;13.97;;;3.53;;
11731;SDS011;5922;53.734;10.258;2023-05-29T03:22:36;11.07;;;3.30;;
11731;SDS011;5922;53.734;10.258;2023-05-29T03:25:04;12.33;;;3.70;;
11731;SDS011;5922;53.734;10.258;2023-05-29T03:27:33;11.87;;;3.70;;
11731;SDS011;5922;53.734;10.258;2023-05-29T03:30:01;10.03;;;3.07;;
11731;SDS011;5922;53.734;10.258;2023-05-29T03:32:28;10.97;;;3.10;;
11731;SDS011;5922;53.734;10.258;2023-05-29T03:34:56;12.50;;;3.07;;
11731;SDS011;5922;53.734;10.258;2023-05-29T03:37:23;16.17;;;3.00;;
11731;SDS011;5922;53.734;10.258;2023-05-29T03:39:50;13.47;;;3.80;;
11731;SDS011;5922;53.734;10.258;2023-05-29T03:42:17;11.67;;;3.57;;
11731;SDS011;5922;53.734;10.258;2023-05-29T03:44:46;14.53;;;3.03;;
11731;SDS011;5922;53.734;10.258;2023-05-29T03:47:13;11.20;;;3.73;;
11731;SDS011;5922;53.734;10.258;2023-05-29T03:49:41;13.80;;;3.40;;
11731;SDS011;5922;53.734;10.258;2023-05-29T03:52:09;15.63;;;3.43;;
11731;SDS011;5922;53.734;10.258;2023-05-29T03:54:36;16.37;;;3.37;;
11731;SDS011;5922;53.734;10.258;2023-05-29T03:57:06;7.30;;;2.90;;
11731;SDS011;5922;53.734;10.258;2023-05-29T03:59:34;14.90;;;3.30;;
11731;SDS011;5922;53.734;10.258;2023-05-29T04:02:03;10.13;;;2.77;;
11731;SDS011;5922;53.734;10.258;2023-05-29T04:04:30;13.27;;;3.60;;
11731;SDS011;5922;53.734;10.258;2023-05-29T04:07:00;17.93;;;3.30;;
11731;SDS011;5922;53.734;10.258;2023-05-29T04:09:27;12.93;;;3.77;;
11731;SDS011;5922;53.734;10.258;2023-05-29T04:11:54;13.13;;;3.40;;
11731;SDS011;5922;53.734;10.258;2023-05-29T04:14:22;11.93;;;3.53;;
11731;SDS011;5922;53.734;10.258;2023-05-29T04:16:49;12.20;;;3.20;;
11731;SDS011;5922;53.734;10.258;2023-05-29T04:19:18;10.23;;;2.93;;
11731;SDS011;5922;53.734;10.258;2023-05-29T04:21:46;11.87;;;2.80;;
11731;SDS011;5922;53.734;10.258;2023-05-29T04:24:13;13.67;;;3.30;;
11731;SDS011;5922;53.734;10.258;2023-05-29T04:26:41;12.70;;;3.37;;
11731;SDS011;5922;53.734;10.258;2023-05-29T04:29:09;17.90;;;3.47;;
11731;SDS011;5922;53.734;10.258;2023-05-29T04:31:37;13.70;;;3.50;;
11731;SDS011;5922;53.734;10.258;2023-05-29T04:34:05;15.33;;;3.70;;
11731;SDS011;5922;53.734;10.258;2023-05-29T04:36:34;13.37;;;3.83;;
11731;SDS011;5922;53.734;10.258;2023-05-29T04:39:04;11.83;;;3.77;;
11731;SDS011;5922;53.734;10.258;2023-05-29T04:41:32;16.97;;;3.80;;
11731;SDS011;5922;53.734;10.258;2023-05-29T04:44:00;14.93;;;3.43;;
11731;SDS011;5922;53.734;10.258;2023-05-29T04:46:29;14.13;;;3.13;;
11731;SDS011;5922;53.734;10.258;2023-05-29T04:48:59;15.30;;;3.70;;
11731;SDS011;5922;53.734;10.258;2023-05-29T04:51:28;14.90;;;3.50;;
11731;SDS011;5922;53.734;10.258;2023-05-29T04:53:57;15.57;;;4.23;;
11731;SDS011;5922;53.734;10.258;2023-05-29T04:56:24;16.03;;;3.80;;
11731;SDS011;5922;53.734;10.258;2023-05-29T04:58:51;13.30;;;3.83;;
11731;SDS011;5922;53.734;10.258;2023-05-29T05:01:19;15.00;;;4.00;;
11731;SDS011;5922;53.734;10.258;2023-05-29T05:03:46;15.70;;;3.97;;
11731;SDS011;5922;53.734;10.258;2023-05-29T05:06:14;10.07;;;3.77;;
11731;SDS011;5922;53.734;10.258;2023-05-29T05:08:42;16.60;;;4.23;;
11731;SDS011;5922;53.734;10.258;2023-05-29T05:11:10;11.30;;;3.47;;
11731;SDS011;5922;53.734;10.258;2023-05-29T05:13:38;14.03;;;4.00;;
11731;SDS011;5922;53.734;10.258;2023-05-29T05:16:06;18.57;;;3.90;;
11731;SDS011;5922;53.734;10.258;2023-05-29T05:18:33;14.57;;;3.90;;
11731;SDS011;5922;53.734;10.258;2023-05-29T05:21:01;13.57;;;3.87;;
11731;SDS011;5922;53.734;10.258;2023-05-29T05:23:29;18.17;;;3.90;;
11731;SDS011;5922;53.734;10.258;2023-05-29T05:25:56;15.50;;;3.60;;
11731;SDS011;5922;53.734;10.258;2023-05-29T05:31:24;15.87;;;4.17;;
11731;SDS011;5922;53.734;10.258;2023-05-29T05:33:54;17.77;;;3.90;;
11731;SDS011;5922;53.734;10.258;2023-05-29T05:36:22;16.93;;;3.67;;
11731;SDS011;5922;53.734;10.258;2023-05-29T05:38:50;15.50;;;3.57;;
11731;SDS011;5922;53.734;10.258;2023-05-29T05:41:20;15.63;;;3.57;;
11731;SDS011;5922;53.734;10.258;2023-05-29T05:43:52;15.47;;;3.50;;
11731;SDS011;5922;53.734;10.258;2023-05-29T05:46:24;16.97;;;4.10;;
11731;SDS011;5922;53.734;10.258;2023-05-29T05:48:56;18.33;;;3.87;;
11731;SDS011;5922;53.734;10.258;2023-05-29T05:51:25;17.20;;;3.30;;
11731;SDS011;5922;53.734;10.258;2023-05-29T05:53:59;14.70;;;4.03;;
11731;SDS011;5922;53.734;10.258;2023-05-29T05:56:43;13.73;;;3.40;;
11731;SDS011;5922;53.734;10.258;2023-05-29T05:59:20;15.43;;;3.87;;
11731;SDS011;5922;53.734;10.258;2023-05-29T06:01:55;13.47;;;3.63;;
11731;SDS011;5922;53.734;10.258;2023-05-29T06:04:23;22.73;;;3.93;;
11731;SDS011;5922;53.734;10.258;2023-05-29T06:06:53;13.47;;;4.00;;
11731;SDS011;5922;53.734;10.258;2023-05-29T06:09:21;13.67;;;3.50;;
11731;SDS011;5922;53.734;10.258;2023-05-29T06:11:53;14.97;;;3.40;;
11731;SDS011;5922;53.734;10.258;2023-05-29T06:14:22;16.27;;;3.80;;
11731;SDS011;5922;53.734;10.258;2023-05-29T06:16:49;12.33;;;3.90;;
11731;SDS011;5922;53.734;10.258;2023-05-29T06:19:18;15.33;;;4.03;;
11731;SDS011;5922;53.734;10.258;2023-05-29T06:21:46;11.43;;;3.77;;
11731;SDS011;5922;53.734;10.258;2023-05-29T06:24:13;19.87;;;3.80;;
11731;SDS011;5922;53.734;10.258;2023-05-29T06:26:43;14.93;;;3.83;;
11731;SDS011;5922;53.734;10.258;2023-05-29T06:29:13;12.90;;;3.90;;
11731;SDS011;5922;53.734;10.258;2023-05-29T06:31:47;16.73;;;3.97;;
11731;SDS011;5922;53.734;10.258;2023-05-29T06:34:20;17.00;;;4.20;;
11731;SDS011;5922;53.734;10.258;2023-05-29T06:36:57;9.30;;;3.27;;
11731;SDS011;5922;53.734;10.258;2023-05-29T06:39:34;13.33;;;4.37;;
11731;SDS011;5922;53.734;10.258;2023-05-29T06:42:07;17.33;;;3.97;;
11731;SDS011;5922;53.734;10.258;2023-05-29T06:44:37;15.30;;;3.70;;
11731;SDS011;5922;53.734;10.258;2023-05-29T06:47:08;11.20;;;3.63;;
11731;SDS011;5922;53.734;10.258;2023-05-29T06:49:37;15.17;;;4.07;;
11731;SDS011;5922;53.734;10.258;2023-05-29T06:52:05;15.30;;;4.47;;
11731;SDS011;5922;53.734;10.258;2023-05-29T06:54:32;12.87;;;3.73;;
11731;SDS011;5922;53.734;10.258;2023-05-29T06:57:01;11.67;;;4.10;;
11731;SDS011;5922;53.734;10.258;2023-05-29T06:59:31;14.30;;;4.20;;
11731;SDS011;5922;53.734;10.258;2023-05-29T07:02:02;15.17;;;3.27;;
11731;SDS011;5922;53.734;10.258;2023-05-29T07:04:39;15.43;;;3.77;;
11731;SDS011;5922;53.734;10.258;2023-05-29T07:07:10;14.17;;;4.40;;
11731;SDS011;5922;53.734;10.258;2023-05-29T07:09:37;14.33;;;3.90;;
11731;SDS011;5922;53.734;10.258;2023-05-29T07:12:05;18.80;;;4.30;;
11731;SDS011;5922;53.734;10.258;2023-05-29T07:14:35;11.90;;;3.60;;
11731;SDS011;5922;53.734;10.258;2023-05-29T07:17:05;15.30;;;5.00;;
11731;SDS011;5922;53.734;10.258;2023-05-29T07:19:39;12.33;;;4.10;;
11731;SDS011;5922;53.734;10.258;2023-05-29T07:22:06;11.20;;;3.60;;
11731;SDS011;5922;53.734;10.258;2023-05-29T07:24:35;15.83;;;4.23;;
11731;SDS011;5922;53.734;10.258;2023-05-29T07:27:22;13.30;;;3.93;;
11731;SDS011;5922;53.734;10.258;2023-05-29T07:29:56;9.73;;;3.70;;
11731;SDS011;5922;53.734;10.258;2023-05-29T07:32:27;11.43;;;4.07;;
11731;SDS011;5922;53.734;10.258;2023-05-29T07:35:06;15.17;;;4.17;;
11731;SDS011;5922;53.734;10.258;2023-05-29T07:37:34;11.33;;;3.87;;
11731;SDS011;5922;53.734;10.258;2023-05-29T07:40:07;13.53;;;3.53;;
11731;SDS011;5922;53.734;10.258;2023-05-29T07:42:35;12.63;;;3.80;;
11731;SDS011;5922;53.734;10.258;2023-05-29T07:45:03;13.20;;;3.70;;
11731;SDS011;5922;53.734;10.258;2023-05-29T07:47:30;10.37;;;3.50;;
11731;SDS011;5922;53.734;10.258;2023-05-29T07:50:01;11.53;;;3.63;;
11731;SDS011;5922;53.734;10.258;2023-05-29T07:52:34;10.47;;;3.77;;
11731;SDS011;5922;53.734;10.258;2023-05-29T07:55:13;8.83;;;3.30;;
11731;SDS011;5922;53.734;10.258;2023-05-29T07:57:41;10.37;;;3.20;;
11731;SDS011;5922;53.734;10.258;2023-05-29T08:00:11;8.50;;;3.10;;
11731;SDS011;5922;53.734;10.258;2023-05-29T08:02:52;13.57;;;3.80;;
11731;SDS011;5922;53.734;10.258;2023-05-29T08:05:26;8.90;;;3.30;;
11731;SDS011;5922;53.734;10.258;2023-05-29T08:07:58;11.77;;;3.67;;
11731;SDS011;5922;53.734;10.258;2023-05-29T08:10:30;12.67;;;4.20;;
11731;SDS011;5922;53.734;10.258;2023-05-29T08:13:02;15.17;;;3.87;;
11731;SDS011;5922;53.734;10.258;2023-05-29T08:16:33;13.03;;;4.03;;
11731;SDS011;5922;53.734;10.258;2023-05-29T08:18:25;13.20;;;3.63;;
11731;SDS011;5922;53.734;10.258;2023-05-29T08:21:04;14.50;;;4.10;;
11731;SDS011;5922;53.734;10.258;2023-05-29T08:23:46;13.03;;;3.73;;
11731;SDS011;5922;53.734;10.258;2023-05-29T08:26:38;15.70;;;3.67;;
11731;SDS011;5922;53.734;10.258;2023-05-29T08:29:13;8.83;;;3.20;;
11731;SDS011;5922;53.734;10.258;2023-05-29T08:31:57;13.33;;;3.17;;
11731;SDS011;5922;53.734;10.258;2023-05-29T08:40:40;15.17;;;3.83;;
11731;SDS011;5922;53.734;10.258;2023-05-29T08:43:28;9.17;;;3.27;;
11731;SDS011;5922;53.734;10.258;2023-05-29T08:46:17;11.00;;;3.27;;
11731;SDS011;5922;53.734;10.258;2023-05-29T08:52:05;10.20;;;3.50;;
11731;SDS011;5922;53.734;10.258;2023-05-29T08:54:39;8.23;;;2.77;;
11731;SDS011;5922;53.734;10.258;2023-05-29T08:57:23;11.93;;;3.70;;
11731;SDS011;5922;53.734;10.258;2023-05-29T09:00:20;9.37;;;3.03;;
11731;SDS011;5922;53.734;10.258;2023-05-29T09:06:21;12.53;;;3.63;;
11731;SDS011;5922;53.734;10.258;2023-05-29T09:12:43;11.60;;;2.83;;
11731;SDS011;5922;53.734;10.258;2023-05-29T09:18:22;8.90;;;3.47;;
11731;SDS011;5922;53.734;10.258;2023-05-29T09:27:39;11.30;;;3.30;;
11731;SDS011;5922;53.734;10.258;2023-05-29T09:54:23;11.83;;;3.30;;
11731;SDS011;5922;53.734;10.258;2023-05-29T10:00:08;8.77;;;3.40;;
11731;SDS011;5922;53.734;10.258;2023-05-29T10:03:16;9.47;;;3.43;;
11731;SDS011;5922;53.734;10.258;2023-05-29T10:06:27;11.57;;;3.43;;
11731;SDS011;5922;53.734;10.258;2023-05-29T10:21:48;8.60;;;3.50;;
11731;SDS011;5922;53.734;10.258;2023-05-29T10:25:00;8.90;;;3.60;;
11731;SDS011;5922;53.734;10.258;2023-05-29T10:55:12;11.43;;;3.50;;
11731;SDS011;5922;53.734;10.258;2023-05-29T11:00:42;8.20;;;2.47;;
11731;SDS011;5922;53.734;10.258;2023-05-29T11:05:35;10.10;;;3.57;;
11731;SDS011;5922;53.734;10.258;2023-05-29T11:06:36;9.17;;;3.00;;
11731;SDS011;5922;53.734;10.258;2023-05-29T11:12:22;11.30;;;3.90;;
11731;SDS011;5922;53.734;10.258;2023-05-29T11:17:20;7.20;;;2.67;;
11731;SDS011;5922;53.734;10.258;2023-05-29T11:55:07;9.70;;;3.00;;
11731;SDS011;5922;53.734;10.258;2023-05-29T11:57:34;10.40;;;2.90;;
11731;SDS011;5922;53.734;10.258;2023-05-29T12:00:02;7.27;;;3.07;;
11731;SDS011;5922;53.734;10.258;2023-05-29T12:02:35;5.17;;;2.67;;
11731;SDS011;5922;53.734;10.258;2023-05-29T12:05:03;13.80;;;3.73;;
11731;SDS011;5922;53.734;10.258;2023-05-29T12:07:31;10.93;;;3.30;;
11731;SDS011;5922;53.734;10.258;2023-05-29T12:10:09;11.77;;;2.83;;
11731;SDS011;5922;53.734;10.258;2023-05-29T12:12:36;9.50;;;2.93;;
11731;SDS011;5922;53.734;10.258;2023-05-29T12:15:05;9.87;;;3.37;;
11731;SDS011;5922;53.734;10.258;2023-05-29T12:17:33;11.07;;;3.70;;
11731;SDS011;5922;53.734;10.258;2023-05-29T12:20:00;9.03;;;3.03;;
11731;SDS011;5922;53.734;10.258;2023-05-29T12:22:32;12.33;;;2.97;;
11731;SDS011;5922;53.734;10.258;2023-05-29T12:25:03;8.17;;;2.80;;
11731;SDS011;5922;53.734;10.258;2023-05-29T12:27:32;6.23;;;2.80;;
11731;SDS011;5922;53.734;10.258;2023-05-29T12:30:06;9.10;;;2.90;;
11731;SDS011;5922;53.734;10.258;2023-05-29T12:32:35;7.50;;;2.90;;
11731;SDS011;5922;53.734;10.258;2023-05-29T12:35:12;8.10;;;3.20;;
11731;SDS011;5922;53.734;10.258;2023-05-29T12:37:43;6.90;;;3.00;;
11731;SDS011;5922;53.734;10.258;2023-05-29T12:40:15;9.33;;;2.90;;
11731;SDS011;5922;53.734;10.258;2023-05-29T12:42:45;7.30;;;3.33;;
11731;SDS011;5922;53.734;10.258;2023-05-29T12:45:13;9.90;;;2.97;;
11731;SDS011;5922;53.734;10.258;2023-05-29T12:47:50;10.80;;;3.03;;
11731;SDS011;5922;53.734;10.258;2023-05-29T12:50:24;11.77;;;2.63;;
11731;SDS011;5922;53.734;10.258;2023-05-29T12:52:55;6.50;;;2.70;;
11731;SDS011;5922;53.734;10.258;2023-05-29T12:55:23;9.63;;;3.30;;
11731;SDS011;5922;53.734;10.258;2023-05-29T12:57:52;7.83;;;2.87;;
11731;SDS011;5922;53.734;10.258;2023-05-29T13:00:21;6.60;;;2.70;;
11731;SDS011;5922;53.734;10.258;2023-05-29T13:02:49;10.97;;;2.90;;
11731;SDS011;5922;53.734;10.258;2023-05-29T13:05:19;7.43;;;3.23;;
11731;SDS011;5922;53.734;10.258;2023-05-29T13:07:48;8.50;;;3.40;;
11731;SDS011;5922;53.734;10.258;2023-05-29T13:10:16;9.47;;;3.23;;
11731;SDS011;5922;53.734;10.258;2023-05-29T13:12:43;9.37;;;3.20;;
11731;SDS011;5922;53.734;10.258;2023-05-29T13:15:13;9.40;;;2.77;;
11731;SDS011;5922;53.734;10.258;2023-05-29T13:17:41;9.20;;;2.93;;
11731;SDS011;5922;53.734;10.258;2023-05-29T13:20:12;8.43;;;2.70;;
11731;SDS011;5922;53.734;10.258;2023-05-29T13:22:42;8.33;;;3.30;;
11731;SDS011;5922;53.734;10.258;2023-05-29T13:25:10;9.33;;;3.00;;
11731;SDS011;5922;53.734;10.258;2023-05-29T13:27:39;9.23;;;3.00;;
11731;SDS011;5922;53.734;10.258;2023-05-29T13:30:07;8.37;;;3.43;;
11731;SDS011;5922;53.734;10.258;2023-05-29T13:32:36;8.10;;;3.27;;
11731;SDS011;5922;53.734;10.258;2023-05-29T13:35:04;7.53;;;2.87;;
11731;SDS011;5922;53.734;10.258;2023-05-29T13:37:31;10.10;;;3.13;;
11731;SDS011;5922;53.734;10.258;2023-05-29T13:39:59;10.73;;;3.10;;
11731;SDS011;5922;53.734;10.258;2023-05-29T13:42:26;10.90;;;3.03;;
11731;SDS011;5922;53.734;10.258;2023-05-29T13:44:55;7.07;;;2.70;;
11731;SDS011;5922;53.734;10.258;2023-05-29T13:47:23;6.97;;;2.70;;
11731;SDS011;5922;53.734;10.258;2023-05-29T13:49:55;9.97;;;3.40;;
11731;SDS011;5922;53.734;10.258;2023-05-29T13:52:25;9.10;;;2.97;;
11731;SDS011;5922;53.734;10.258;2023-05-29T13:54:53;9.47;;;3.20;;
11731;SDS011;5922;53.734;10.258;2023-05-29T13:57:20;7.47;;;2.80;;
11731;SDS011;5922;53.734;10.258;2023-05-29T13:59:47;7.93;;;3.27;;
11731;SDS011;5922;53.734;10.258;2023-05-29T14:02:17;11.80;;;3.50;;
11731;SDS011;5922;53.734;10.258;2023-05-29T14:04:51;9.90;;;3.63;;
11731;SDS011;5922;53.734;10.258;2023-05-29T14:10:14;8.63;;;3.17;;
11731;SDS011;5922;53.734;10.258;2023-05-29T14:12:41;9.43;;;2.70;;
11731;SDS011;5922;53.734;10.258;2023-05-29T14:15:09;6.17;;;2.73;;
11731;SDS011;5922;53.734;10.258;2023-05-29T14:17:37;5.47;;;2.77;;
11731;SDS011;5922;53.734;10.258;2023-05-29T14:20:08;8.73;;;3.20;;
11731;SDS011;5922;53.734;10.258;2023-05-29T14:22:37;9.40;;;2.90;;
11731;SDS011;5922;53.734;10.258;2023-05-29T14:25:04;10.60;;;3.23;;
11731;SDS011;5922;53.734;10.258;2023-05-29T14:27:34;5.90;;;2.83;;
11731;SDS011;5922;53.734;10.258;2023-05-29T14:30:02;10.10;;;3.23;;
11731;SDS011;5922;53.734;10.258;2023-05-29T14:32:30;6.03;;;3.03;;
11731;SDS011;5922;53.734;10.258;2023-05-29T14:35:00;10.90;;;2.80;;
11731;SDS011;5922;53.734;10.258;2023-05-29T14:37:28;8.97;;;3.23;;
11731;SDS011;5922;53.734;10.258;2023-05-29T14:40:04;9.10;;;2.50;;
11731;SDS011;5922;53.734;10.258;2023-05-29T14:42:47;8.17;;;2.53;;
11731;SDS011;5922;53.734;10.258;2023-05-29T14:45:21;7.90;;;2.87;;
11731;SDS011;5922;53.734;10.258;2023-05-29T14:47:48;6.53;;;3.80;;
11731;SDS011;5922;53.734;10.258;2023-05-29T14:50:18;6.07;;;3.30;;
11731;SDS011;5922;53.734;10.258;2023-05-29T14:52:47;6.80;;;2.60;;
11731;SDS011;5922;53.734;10.258;2023-05-29T14:55:23;7.93;;;2.80;;
11731;SDS011;5922;53.734;10.258;2023-05-29T14:57:56;7.37;;;2.70;;
11731;SDS011;5922;53.734;10.258;2023-05-29T15:00:24;8.30;;;2.67;;
11731;SDS011;5922;53.734;10.258;2023-05-29T15:02:53;7.80;;;2.60;;
11731;SDS011;5922;53.734;10.258;2023-05-29T15:05:22;14.43;;;3.20;;
11731;SDS011;5922;53.734;10.258;2023-05-29T15:07:49;4.70;;;2.73;;
11731;SDS011;5922;53.734;10.258;2023-05-29T15:10:27;7.00;;;2.97;;
11731;SDS011;5922;53.734;10.258;2023-05-29T15:13:00;6.87;;;2.90;;
11731;SDS011;5922;53.734;10.258;2023-05-29T15:15:29;7.37;;;3.33;;
11731;SDS011;5922;53.734;10.258;2023-05-29T15:17:56;7.40;;;3.00;;
11731;SDS011;5922;53.734;10.258;2023-05-29T15:20:26;8.77;;;2.33;;
11731;SDS011;5922;53.734;10.258;2023-05-29T15:22:53;7.57;;;2.73;;
11731;SDS011;5922;53.734;10.258;2023-05-29T15:25:34;5.93;;;2.77;;
11731;SDS011;5922;53.734;10.258;2023-05-29T15:28:03;10.00;;;2.80;;
11731;SDS011;5922;53.734;10.258;2023-05-29T15:30:38;8.87;;;2.90;;
11731;SDS011;5922;53.734;10.258;2023-05-29T15:33:05;9.47;;;2.80;;
11731;SDS011;5922;53.734;10.258;2023-05-29T15:35:34;7.87;;;2.90;;
11731;SDS011;5922;53.734;10.258;2023-05-29T15:38:01;7.73;;;3.27;;
11731;SDS011;5922;53.734;10.258;2023-05-29T15:40:29;6.93;;;2.90;;
11731;SDS011;5922;53.734;10.258;2023-05-29T15:42:58;5.37;;;2.53;;
11731;SDS011;5922;53.734;10.258;2023-05-29T15:45:31;9.13;;;2.80;;
11731;SDS011;5922;53.734;10.258;2023-05-29T15:47:59;8.90;;;2.70;;
11731;SDS011;5922;53.734;10.258;2023-05-29T15:50:33;8.63;;;3.17;;
11731;SDS011;5922;53.734;10.258;2023-05-29T15:53:03;7.17;;;2.80;;
11731;SDS011;5922;53.734;10.258;2023-05-29T15:55:32;7.40;;;3.00;;
11731;SDS011;5922;53.734;10.258;2023-05-29T15:58:00;8.27;;;3.10;;
11731;SDS011;5922;53.734;10.258;2023-05-29T16:00:27;8.33;;;2.80;;
11731;SDS011;5922;53.734;10.258;2023-05-29T16:02:56;8.47;;;3.67;;
11731;SDS011;5922;53.734;10.258;2023-05-29T16:05:24;6.73;;;2.80;;
11731;SDS011;5922;53.734;10.258;2023-05-29T16:07:52;9.97;;;3.10;;
11731;SDS011;5922;53.734;10.258;2023-05-29T16:10:20;9.83;;;3.27;;
11731;SDS011;5922;53.734;10.258;2023-05-29T16:12:48;10.03;;;2.97;;
11731;SDS011;5922;53.734;10.258;2023-05-29T16:15:15;11.53;;;2.90;;
11731;SDS011;5922;53.734;10.258;2023-05-29T16:17:46;7.10;;;2.77;;
11731;SDS011;5922;53.734;10.258;2023-05-29T16:20:17;6.13;;;2.80;;
11731;SDS011;5922;53.734;10.258;2023-05-29T16:22:49;5.53;;;2.50;;
11731;SDS011;5922;53.734;10.258;2023-05-29T16:25:17;6.73;;;2.83;;
11731;SDS011;5922;53.734;10.258;2023-05-29T16:27:44;10.97;;;2.97;;
11731;SDS011;5922;53.734;10.258;2023-05-29T16:30:12;9.73;;;2.83;;
11731;SDS011;5922;53.734;10.258;2023-05-29T16:32:39;9.90;;;3.27;;
11731;SDS011;5922;53.734;10.258;2023-05-29T16:35:07;6.70;;;3.10;;
11731;SDS011;5922;53.734;10.258;2023-05-29T16:37:36;7.90;;;3.17;;
11731;SDS011;5922;53.734;10.258;2023-05-29T16:40:04;10.07;;;3.63;;
11731;SDS011;5922;53.734;10.258;2023-05-29T16:42:33;12.10;;;3.20;;
11731;SDS011;5922;53.734;10.258;2023-05-29T16:45:13;10.60;;;2.63;;
11731;SDS011;5922;53.734;10.258;2023-05-29T16:47:47;12.13;;;3.40;;
11731;SDS011;5922;53.734;10.258;2023-05-29T16:50:14;10.00;;;2.83;;
11731;SDS011;5922;53.734;10.258;2023-05-29T16:52:42;10.13;;;3.03;;
11731;SDS011;5922;53.734;10.258;2023-05-29T16:55:11;11.83;;;2.83;;
11731;SDS011;5922;53.734;10.258;2023-05-29T16:57:38;7.13;;;3.07;;
11731;SDS011;5922;53.734;10.258;2023-05-29T17:00:08;10.47;;;3.67;;
11731;SDS011;5922;53.734;10.258;2023-05-29T17:02:35;9.40;;;3.20;;
11731;SDS011;5922;53.734;10.258;2023-05-29T17:05:02;7.90;;;2.90;;
11731;SDS011;5922;53.734;10.258;2023-05-29T17:07:30;9.90;;;3.20;;
11731;SDS011;5922;53.734;10.258;2023-05-29T17:10:01;10.20;;;3.00;;
11731;SDS011;5922;53.734;10.258;2023-05-29T17:12:29;10.70;;;3.53;;
11731;SDS011;5922;53.734;10.258;2023-05-29T17:14:58;10.30;;;3.60;;
11731;SDS011;5922;53.734;10.258;2023-05-29T17:17:25;10.13;;;3.57;;
11731;SDS011;5922;53.734;10.258;2023-05-29T17:19:52;11.87;;;3.47;;